Mountainair, New Mexico
Current Conditions -  °F | °C
As of 3:55 PM on Friday 28 Nov 2014 (Local Time) from K0E0 Reporting Station
Clear Clear  
Wind Chill: 64°   Ceiling: Unl
Heat Index: 64°   Visibility: 10mi
Dew Point: 11°   Wind: 9mph
Humidity: 13%   Direction: 280°W
Pressure: 30.12"   Gusts: NA
Location:  34.52°N, 106.24°W
Report Text: K0E0 282255Z AUTO 28008KT 10SM CLR 18/M12 A3012 RMK AO2 T01751118
Loading
Personal Weather Stations






























Interactive Weather Map New forecast layout! Learn more

10-Day Weather Forecast

Advertisements
Track Severe Weather on mobile